Time;durP1;ratioP1;P1;durP2;ratioP2;P2;SDS_P1;SDS_P2;PMS_P1;PMS_P2;Temp;Humidity;BMP_temperature;BMP_pressure;BME280_temperature;BME280_humidity;BME280_pressure;Samples;Min_cycle;Max_cycle;Signal;HPM_P1;HPM_P2
2022/08/01 00:00:11;;;;;;;6.70;3.00;;;20.30;99.90;;;;;;5084926;28;20291;-58
2022/08/01 00:02:41;;;;;;;2.87;2.77;;;20.30;99.90;;;;;;5062906;28;20195;-58
2022/08/01 00:05:11;;;;;;;3.67;3.00;;;20.30;99.90;;;;;;5084169;28;20189;-59
2022/08/01 00:07:40;;;;;;;5.93;3.60;;;20.30;99.90;;;;;;5086351;28;20311;-58
2022/08/01 00:10:11;;;;;;;10.20;3.80;;;20.20;99.90;;;;;;5086212;28;20280;-58
2022/08/01 00:12:41;;;;;;;3.93;3.47;;;20.20;99.90;;;;;;5067273;28;20196;-58
2022/08/01 00:15:13;;;;;;;4.13;3.70;;;20.10;99.90;;;;;;5072058;28;20525;-58
2022/08/01 00:17:42;;;;;;;4.80;3.50;;;20.10;99.90;;;;;;5060413;28;20191;-59
2022/08/01 00:20:12;;;;;;;4.07;3.73;;;20.00;99.90;;;;;;5072933;28;20223;-58
2022/08/01 00:22:41;;;;;;;7.73;4.50;;;20.00;99.90;;;;;;5072999;28;20184;-58
2022/08/01 00:25:10;;;;;;;5.83;4.10;;;20.00;99.90;;;;;;5072237;28;20253;-58
2022/08/01 00:27:38;;;;;;;9.13;4.83;;;20.00;99.90;;;;;;5065252;28;20223;-59
2022/08/01 00:30:09;;;;;;;9.27;4.80;;;19.90;99.90;;;;;;5073588;28;20280;-58
2022/08/01 00:32:42;;;;;;;7.93;4.83;;;19.90;99.90;;;;;;5065137;28;20593;-58
2022/08/01 00:35:13;;;;;;;8.53;4.50;;;19.90;99.90;;;;;;5065234;28;20660;-58
2022/08/01 00:37:41;;;;;;;5.97;4.27;;;19.90;99.90;;;;;;5072275;28;20188;-58
2022/08/01 00:40:10;;;;;;;4.13;3.83;;;19.80;99.90;;;;;;5078742;28;20240;-58
2022/08/01 00:42:39;;;;;;;8.33;4.67;;;19.80;99.90;;;;;;5072445;28;20208;-58
2022/08/01 00:45:12;;;;;;;6.50;4.63;;;19.80;99.90;;;;;;5059717;28;20262;-59
2022/08/01 00:47:41;;;;;;;7.67;4.60;;;19.80;99.90;;;;;;5073532;28;20677;-58
2022/08/01 00:50:10;;;;;;;11.00;5.10;;;19.80;99.90;;;;;;5073304;28;20832;-58
2022/08/01 00:52:40;;;;;;;7.83;5.00;;;19.80;99.90;;;;;;5057342;28;20219;-58
2022/08/01 00:55:10;;;;;;;9.83;5.17;;;19.70;99.90;;;;;;5065025;28;20647;-58
2022/08/01 00:57:42;;;;;;;9.77;5.27;;;19.70;99.90;;;;;;5084288;28;20275;-58
2022/08/01 01:00:34;;;;;;;12.77;6.47;;;19.70;99.90;;;;;;5077916;28;20199;-58
2022/08/01 01:03:22;;;;;;;15.47;7.00;;;19.70;99.90;;;;;;5067706;28;20207;-59
2022/08/01 01:06:23;;;;;;;14.50;6.20;;;19.70;99.90;;;;;;5068121;28;20548;-58
2022/08/01 01:09:04;;;;;;;14.33;6.80;;;19.70;99.90;;;;;;5063118;28;20307;-58
2022/08/01 01:11:39;;;;;;;12.30;6.33;;;19.70;99.90;;;;;;5069711;28;20219;-58
2022/08/01 01:14:14;;;;;;;11.87;7.00;;;19.60;99.90;;;;;;5072860;28;20203;-59
2022/08/01 01:16:45;;;;;;;12.27;6.07;;;19.70;99.90;;;;;;5064586;28;20219;-58
2022/08/01 01:19:21;;;;;;;13.63;6.67;;;19.70;99.90;;;;;;5051704;28;20199;-59
2022/08/01 01:22:17;;;;;;;13.10;7.30;;;19.70;99.90;;;;;;5094515;28;20199;-58
2022/08/01 01:24:59;;;;;;;18.60;7.37;;;19.70;99.90;;;;;;5067215;28;20208;-59
2022/08/01 01:27:40;;;;;;;14.10;7.07;;;19.60;99.90;;;;;;5061715;28;20299;-58
2022/08/01 01:30:11;;;;;;;18.67;7.93;;;19.60;99.90;;;;;;5076416;28;20202;-59
2022/08/01 01:32:44;;;;;;;11.17;6.83;;;19.60;99.90;;;;;;5066818;28;20681;-58
2022/08/01 01:35:18;;;;;;;16.30;6.83;;;19.60;99.90;;;;;;5073051;28;20279;-58
2022/08/01 01:37:50;;;;;;;14.50;7.87;;;19.60;99.90;;;;;;5081434;28;20246;-59
2022/08/01 01:40:20;;;;;;;14.87;7.30;;;19.60;99.90;;;;;;5072418;28;20207;-58
2022/08/01 01:42:49;;;;;;;16.23;8.20;;;19.60;99.90;;;;;;5065665;28;20192;-58
2022/08/01 01:45:20;;;;;;;19.87;8.77;;;19.60;99.90;;;;;;5073114;28;20195;-59
2022/08/01 01:47:48;;;;;;;23.27;9.00;;;19.60;99.90;;;;;;5065823;28;20285;-58
2022/08/01 01:50:20;;;;;;;16.80;8.87;;;19.60;99.90;;;;;;5052723;28;20224;-59
2022/08/01 01:52:49;;;;;;;15.97;8.17;;;19.60;99.90;;;;;;5059580;28;20200;-59
2022/08/01 01:55:20;;;;;;;15.07;8.57;;;19.60;99.90;;;;;;5071959;28;20651;-58
2022/08/01 01:57:50;;;;;;;18.10;9.00;;;19.60;99.90;;;;;;5069609;28;20291;-58
2022/08/01 02:00:20;;;;;;;19.63;8.50;;;19.60;99.90;;;;;;5066422;28;20188;-58
2022/08/01 02:02:51;;;;;;;14.03;8.37;;;19.60;99.90;;;;;;5077593;28;20555;-59
2022/08/01 02:05:21;;;;;;;15.43;8.83;;;19.60;99.90;;;;;;5071092;28;20227;-58
2022/08/01 02:07:52;;;;;;;15.57;9.20;;;19.50;99.90;;;;;;5072035;28;20216;-59
2022/08/01 02:10:27;;;;;;;17.33;9.37;;;19.50;99.90;;;;;;5066882;28;20725;-58
2022/08/01 02:12:58;;;;;;;16.10;10.13;;;19.50;99.90;;;;;;5071427;28;20188;-59
2022/08/01 02:15:29;;;;;;;20.47;9.67;;;19.60;99.90;;;;;;5091405;28;20270;-58
2022/08/01 02:17:58;;;;;;;21.33;10.43;;;19.50;99.90;;;;;;5079401;28;20212;-58
2022/08/01 02:20:30;;;;;;;18.27;11.00;;;19.50;99.90;;;;;;5074559;28;20192;-58
2022/08/01 02:23:07;;;;;;;16.63;9.80;;;19.50;99.90;;;;;;5066181;28;20719;-58
2022/08/01 02:25:43;;;;;;;29.33;14.37;;;19.40;99.90;;;;;;5071638;28;20275;-58
2022/08/01 02:28:35;;;;;;;22.93;12.97;;;19.40;99.90;;;;;;5063519;28;20196;-58
2022/08/01 02:31:11;;;;;;;30.07;14.57;;;19.40;99.90;;;;;;5098476;28;20509;-58
2022/08/01 02:33:42;;;;;;;20.03;12.03;;;19.40;99.90;;;;;;5070421;28;20603;-58
2022/08/01 02:36:12;;;;;;;21.00;13.43;;;19.30;99.90;;;;;;5082022;28;20651;-58
2022/08/01 02:39:02;;;;;;;25.07;13.20;;;19.30;99.90;;;;;;5075472;28;20577;-59
2022/08/01 02:41:34;;;;;;;27.40;14.33;;;19.30;99.90;;;;;;5065136;28;20201;-58
2022/08/01 02:44:05;;;;;;;28.33;14.43;;;19.30;99.90;;;;;;5061450;28;20589;-58
2022/08/01 02:46:39;;;;;;;28.10;14.90;;;19.20;99.90;;;;;;5068112;28;20207;-58
2022/08/01 02:49:10;;;;;;;24.60;13.97;;;19.20;99.90;;;;;;5072844;28;20200;-58
2022/08/01 02:51:40;;;;;;;25.77;15.17;;;19.20;99.90;;;;;;5073077;28;20199;-58
2022/08/01 02:54:10;;;;;;;28.97;16.03;;;19.20;99.90;;;;;;5065365;28;20316;-58
2022/08/01 02:56:40;;;;;;;29.37;16.23;;;19.20;99.90;;;;;;5066527;28;20221;-58
2022/08/01 02:59:14;;;;;;;31.40;17.77;;;19.20;99.90;;;;;;5063399;28;20195;-58
2022/08/01 03:01:46;;;;;;;31.17;17.00;;;19.10;99.90;;;;;;5069721;28;20765;-58
2022/08/01 03:04:17;;;;;;;30.60;16.33;;;19.10;99.90;;;;;;5064934;28;20287;-58
2022/08/01 03:06:48;;;;;;;32.33;17.67;;;19.10;99.90;;;;;;5069599;28;20198;-58
2022/08/01 03:09:17;;;;;;;43.90;19.80;;;19.10;99.90;;;;;;5099235;28;20225;-59
2022/08/01 03:11:49;;;;;;;41.47;20.97;;;19.10;99.90;;;;;;5063489;28;20254;-59
2022/08/01 03:14:21;;;;;;;47.53;22.00;;;19.10;99.90;;;;;;5058741;28;20311;-58
2022/08/01 03:16:53;;;;;;;42.03;22.47;;;19.00;99.90;;;;;;5073524;28;20261;-59
2022/08/01 03:19:25;;;;;;;47.00;25.97;;;19.00;99.90;;;;;;5052679;28;20254;-59
2022/08/01 03:21:56;;;;;;;35.83;21.70;;;19.00;99.90;;;;;;5073700;28;20242;-58
2022/08/01 03:24:28;;;;;;;44.90;23.17;;;18.90;99.90;;;;;;5073798;28;20273;-59
2022/08/01 03:26:58;;;;;;;48.07;25.60;;;18.90;99.90;;;;;;5067036;28;20204;-58
2022/08/01 03:29:30;;;;;;;45.80;23.80;;;18.90;99.90;;;;;;5068834;28;20185;-59
2022/08/01 03:32:01;;;;;;;42.57;23.37;;;18.90;99.90;;;;;;5074097;28;20204;-59
2022/08/01 03:34:31;;;;;;;40.50;23.70;;;18.90;99.90;;;;;;5073845;28;20279;-59
2022/08/01 03:37:06;;;;;;;43.83;24.03;;;18.90;99.90;;;;;;5069286;28;20216;-58
2022/08/01 03:39:40;;;;;;;33.73;20.33;;;18.90;99.90;;;;;;5069071;28;20234;-58
2022/08/01 03:42:16;;;;;;;39.50;21.63;;;18.90;99.90;;;;;;5063879;28;20547;-59
2022/08/01 03:44:55;;;;;;;32.87;18.17;;;18.90;99.90;;;;;;5087089;28;20725;-59
2022/08/01 03:47:30;;;;;;;29.47;16.50;;;18.90;99.90;;;;;;5066363;28;20549;-59
2022/08/01 03:50:01;;;;;;;26.50;14.77;;;18.90;99.90;;;;;;5069423;28;20271;-59
2022/08/01 03:52:30;;;;;;;31.70;17.27;;;18.90;99.90;;;;;;5066082;28;20192;-59
2022/08/01 03:55:04;;;;;;;29.93;15.37;;;18.90;99.90;;;;;;5071186;28;20222;-58
2022/08/01 03:57:35;;;;;;;21.30;13.20;;;18.90;99.90;;;;;;5063023;28;20307;-59
2022/08/01 04:00:08;;;;;;;31.13;14.63;;;18.90;99.90;;;;;;5074575;28;20196;-59
2022/08/01 04:02:39;;;;;;;21.47;13.77;;;18.90;99.90;;;;;;5058054;28;20239;-58
2022/08/01 04:05:08;;;;;;;24.93;13.67;;;18.90;99.90;;;;;;5103973;28;20659;-58
2022/08/01 04:07:38;;;;;;;24.43;12.07;;;18.80;99.90;;;;;;5066199;28;20266;-59
2022/08/01 04:10:08;;;;;;;20.17;12.10;;;18.90;99.90;;;;;;5069601;28;20200;-59
2022/08/01 04:12:36;;;;;;;20.27;11.20;;;18.90;99.90;;;;;;5052800;28;20195;-59
2022/08/01 04:15:06;;;;;;;17.37;10.60;;;18.90;99.90;;;;;;5069482;28;20200;-58
2022/08/01 04:17:34;;;;;;;18.77;9.93;;;18.90;99.90;;;;;;5070975;28;20219;-59
2022/08/01 04:20:04;;;;;;;19.03;10.33;;;18.90;99.90;;;;;;5073344;28;20287;-59
2022/08/01 04:22:35;;;;;;;15.00;9.50;;;18.80;99.90;;;;;;5106693;28;20202;-58
2022/08/01 04:25:10;;;;;;;14.40;8.30;;;18.80;99.90;;;;;;5069644;28;20188;-59
2022/08/01 04:27:43;;;;;;;15.67;8.40;;;18.80;99.90;;;;;;5074178;28;20634;-59
2022/08/01 04:30:21;;;;;;;13.57;9.03;;;18.80;99.90;;;;;;5073684;28;20539;-59
2022/08/01 04:32:55;;;;;;;14.83;9.10;;;18.90;99.90;;;;;;5077228;28;20742;-59
2022/08/01 04:35:27;;;;;;;18.10;9.60;;;18.90;99.90;;;;;;5066836;28;20208;-59
2022/08/01 04:38:20;;;;;;;13.37;8.20;;;18.90;99.90;;;;;;5058718;28;20215;-59
2022/08/01 04:40:53;;;;;;;13.73;8.50;;;18.90;99.90;;;;;;5064071;28;20648;-59
2022/08/01 04:43:22;;;;;;;10.47;7.77;;;18.90;99.90;;;;;;5064584;28;20216;-58
2022/08/01 04:45:52;;;;;;;13.50;8.27;;;19.00;99.90;;;;;;5068802;28;20238;-59
2022/08/01 04:48:21;;;;;;;17.03;8.47;;;19.00;99.90;;;;;;5064835;28;20220;-59
2022/08/01 04:50:52;;;;;;;12.50;8.07;;;19.00;99.90;;;;;;5056728;28;20234;-59
2022/08/01 04:53:22;;;;;;;13.13;8.30;;;19.00;99.90;;;;;;5064552;28;20654;-59
2022/08/01 04:55:50;;;;;;;14.13;8.40;;;19.00;99.90;;;;;;5106290;28;20188;-59
2022/08/01 04:58:19;;;;;;;15.33;8.20;;;19.00;99.90;;;;;;5071244;28;20235;-59
2022/08/01 05:00:47;;;;;;;7.97;7.17;;;19.00;99.90;;;;;;5077876;28;20207;-59
2022/08/01 05:03:16;;;;;;;11.70;7.23;;;19.10;99.90;;;;;;5071836;28;20191;-58
2022/08/01 05:05:47;;;;;;;10.93;7.30;;;19.10;99.90;;;;;;5071541;28;20199;-59
2022/08/01 05:08:17;;;;;;;12.83;8.03;;;19.20;99.90;;;;;;5056292;28;20538;-59
2022/08/01 05:10:45;;;;;;;14.33;7.67;;;19.20;99.90;;;;;;5068549;28;20229;-59
2022/08/01 05:13:13;;;;;;;10.63;7.20;;;19.20;99.90;;;;;;5065760;28;20200;-59
2022/08/01 05:15:42;;;;;;;8.97;7.00;;;19.20;99.90;;;;;;5068711;28;20279;-59
2022/08/01 05:18:11;;;;;;;7.67;6.60;;;19.20;99.90;;;;;;5069935;28;20370;-59
2022/08/01 05:20:42;;;;;;;7.63;6.43;;;19.30;99.90;;;;;;5072386;28;20198;-59
2022/08/01 05:23:11;;;;;;;10.47;7.47;;;19.30;99.90;;;;;;5056661;28;20209;-59
2022/08/01 05:26:00;;;;;;;12.90;7.07;;;19.40;99.90;;;;;;5062155;28;20220;-59
2022/08/01 05:28:29;;;;;;;8.63;7.57;;;19.40;99.90;;;;;;5067396;28;20284;-59
2022/08/01 05:30:57;;;;;;;8.70;6.77;;;19.50;99.90;;;;;;5067404;28;20223;-58
2022/08/01 05:33:25;;;;;;;6.73;6.17;;;19.60;99.90;;;;;;5067928;28;20188;-58
2022/08/01 05:35:54;;;;;;;9.43;6.97;;;19.60;99.90;;;;;;5062312;28;20223;-58
2022/08/01 05:38:22;;;;;;;8.93;7.07;;;19.70;99.90;;;;;;5066929;28;20291;-58
2022/08/01 05:40:50;;;;;;;7.10;6.20;;;19.70;99.90;;;;;;5074448;28;20249;-60
2022/08/01 05:43:20;;;;;;;8.30;7.30;;;19.80;99.90;;;;;;5093703;28;20196;-59
2022/08/01 05:45:55;;;;;;;8.13;5.40;;;19.80;99.90;;;;;;5075264;28;20199;-59
2022/08/01 05:48:23;;;;;;;9.00;6.00;;;19.90;99.90;;;;;;5075374;28;20275;-59
2022/08/01 05:50:52;;;;;;;5.77;5.27;;;20.00;99.90;;;;;;5076579;28;20271;-59
2022/08/01 05:53:26;;;;;;;7.10;5.37;;;19.90;99.90;;;;;;5069739;28;20198;-59
2022/08/01 05:55:54;;;;;;;8.03;5.60;;;20.00;99.90;;;;;;5074191;28;20184;-59
2022/08/01 05:58:24;;;;;;;5.80;4.93;;;20.00;99.90;;;;;;5061418;28;20203;-59
2022/08/01 06:00:52;;;;;;;7.20;4.83;;;20.00;99.90;;;;;;5097582;28;20213;-59
2022/08/01 06:03:20;;;;;;;7.23;4.77;;;20.10;99.90;;;;;;5066927;28;20669;-59
2022/08/01 06:05:49;;;;;;;6.37;4.67;;;20.10;99.90;;;;;;5054130;28;20215;-59
2022/08/01 06:08:17;;;;;;;4.83;4.33;;;20.10;99.90;;;;;;5068537;28;20228;-58
2022/08/01 06:10:46;;;;;;;7.10;4.33;;;20.10;99.90;;;;;;5069870;28;20291;-59
2022/08/01 06:13:14;;;;;;;5.27;4.87;;;20.20;99.90;;;;;;5069888;28;20215;-59
2022/08/01 06:16:21;;;;;;;5.23;4.73;;;20.30;99.90;;;;;;5071537;28;20283;-59
2022/08/01 06:18:51;;;;;;;4.93;4.07;;;20.40;99.90;;;;;;5062472;28;20212;-59
2022/08/01 06:21:24;;;;;;;6.73;4.13;;;20.70;99.90;;;;;;5066082;28;20208;-58
2022/08/01 06:23:53;;;;;;;4.03;3.83;;;20.80;99.90;;;;;;5063847;28;20200;-59
2022/08/01 06:26:21;;;;;;;4.80;4.50;;;21.00;99.90;;;;;;5065645;28;20227;-59
2022/08/01 06:28:49;;;;;;;4.53;4.20;;;21.20;99.90;;;;;;5065701;28;20291;-58
2022/08/01 06:31:37;;;;;;;4.87;4.07;;;21.30;99.90;;;;;;5059661;28;20255;-58
2022/08/01 06:34:07;;;;;;;4.87;4.40;;;21.50;99.90;;;;;;5063804;28;20196;-59
2022/08/01 06:36:36;;;;;;;4.53;4.13;;;21.60;99.90;;;;;;5071390;28;20190;-59
2022/08/01 06:39:04;;;;;;;3.73;3.43;;;21.60;99.90;;;;;;5070852;28;20216;-58
2022/08/01 06:41:32;;;;;;;3.60;2.40;;;21.60;99.90;;;;;;5055063;28;20725;-58
2022/08/01 06:44:02;;;;;;;3.07;2.87;;;21.70;99.90;;;;;;5078597;28;20277;-59
2022/08/01 06:46:30;;;;;;;2.90;2.70;;;21.50;99.90;;;;;;5071862;28;20208;-58
2022/08/01 06:48:59;;;;;;;2.73;2.63;;;21.40;99.90;;;;;;5063470;28;20251;-58
2022/08/01 06:51:29;;;;;;;5.20;3.13;;;21.30;99.90;;;;;;5072086;28;20220;-58
2022/08/01 06:54:00;;;;;;;3.13;2.73;;;21.30;99.90;;;;;;5067708;28;20283;-58
2022/08/01 06:56:29;;;;;;;2.40;2.20;;;21.20;99.90;;;;;;5072852;28;20624;-59
2022/08/01 06:59:00;;;;;;;3.70;2.40;;;21.20;99.90;;;;;;5063875;28;20640;-59
2022/08/01 07:01:29;;;;;;;1.93;1.93;;;21.20;99.90;;;;;;5074103;28;20195;-58
2022/08/01 07:04:02;;;;;;;2.00;1.90;;;21.20;99.90;;;;;;5073949;28;20200;-58
2022/08/01 07:06:32;;;;;;;1.90;1.80;;;21.20;99.90;;;;;;5067725;28;20198;-58
2022/08/01 07:09:00;;;;;;;1.90;1.80;;;21.30;99.90;;;;;;5074750;28;20696;-58
2022/08/01 07:11:36;;;;;;;2.20;2.10;;;21.40;99.90;;;;;;5068648;28;20188;-58
2022/08/01 07:14:04;;;;;;;2.50;2.30;;;21.50;99.90;;;;;;5073250;28;20287;-58
2022/08/01 07:16:33;;;;;;;2.60;2.10;;;21.40;99.90;;;;;;5070314;28;20227;-58
2022/08/01 07:19:01;;;;;;;2.07;1.97;;;21.30;99.90;;;;;;5086948;28;20220;-58
2022/08/01 07:21:31;;;;;;;2.50;2.20;;;21.30;99.90;;;;;;5061438;28;20205;-58
2022/08/01 07:24:12;;;;;;;2.10;2.00;;;21.30;99.90;;;;;;5071076;28;20659;-58
2022/08/01 07:26:44;;;;;;;2.23;2.13;;;21.20;99.90;;;;;;5072776;28;20671;-58
2022/08/01 07:29:22;;;;;;;1.50;1.50;;;21.20;99.90;;;;;;5074363;28;20254;-58
2022/08/01 07:31:53;;;;;;;1.67;1.57;;;21.30;99.90;;;;;;5065269;28;20212;-59
2022/08/01 07:34:22;;;;;;;1.60;1.60;;;21.40;99.90;;;;;;5064732;28;20222;-59
2022/08/01 07:36:52;;;;;;;4.30;1.40;;;21.70;99.90;;;;;;5084451;28;20715;-58
2022/08/01 07:39:21;;;;;;;1.77;1.67;;;21.90;99.90;;;;;;5058832;28;20227;-59
2022/08/01 07:41:49;;;;;;;1.63;1.63;;;22.00;99.90;;;;;;5069632;28;20275;-58
2022/08/01 07:44:34;;;;;;;1.73;1.40;;;22.20;99.90;;;;;;5074517;28;20629;-58
2022/08/01 07:47:02;;;;;;;1.70;1.60;;;22.40;99.90;;;;;;5069685;28;20226;-58
2022/08/01 07:49:31;;;;;;;1.70;1.60;;;22.50;99.90;;;;;;5065424;28;20522;-59
2022/08/01 07:52:08;;;;;;;2.30;2.20;;;22.60;99.90;;;;;;5060680;28;20204;-58
2022/08/01 07:54:37;;;;;;;2.27;2.07;;;22.80;99.90;;;;;;5072217;28;20216;-58
2022/08/01 07:57:06;;;;;;;2.80;2.40;;;23.20;99.90;;;;;;5065561;28;20282;-59
2022/08/01 08:00:14;;;;;;;4.20;2.20;;;23.50;99.90;;;;;;5069091;28;20220;-59
2022/08/01 08:02:43;;;;;;;1.90;1.80;;;23.40;99.90;;;;;;5063448;28;20727;-59
2022/08/01 08:05:12;;;;;;;1.60;1.50;;;23.20;99.90;;;;;;5069368;28;20195;-58
2022/08/01 08:07:42;;;;;;;1.93;1.83;;;23.00;99.90;;;;;;5068795;28;20219;-58
2022/08/01 08:10:10;;;;;;;1.93;1.83;;;22.90;99.90;;;;;;5060304;28;20206;-58
2022/08/01 08:12:39;;;;;;;2.00;1.63;;;22.80;99.90;;;;;;5067809;28;20233;-59
2022/08/01 08:15:08;;;;;;;1.60;1.60;;;22.80;99.90;;;;;;5070916;28;20295;-59
2022/08/01 08:17:36;;;;;;;2.17;2.00;;;22.80;99.90;;;;;;5068563;28;20286;-59
2022/08/01 08:20:08;;;;;;;1.40;1.40;;;23.20;99.90;;;;;;5068791;28;20580;-59
2022/08/01 08:22:38;;;;;;;1.90;1.80;;;24.00;99.90;;;;;;5070574;28;20285;-59
2022/08/01 08:25:09;;;;;;;3.55;3.35;;;24.90;99.90;;;;;;5065828;28;20210;-59
2022/08/01 08:27:39;;;;;;;5.85;5.55;;;25.20;99.90;;;;;;5062625;28;20215;-59
2022/08/01 08:30:10;;;;;;;5.28;4.88;;;25.70;99.90;;;;;;5064890;28;20257;-59
2022/08/01 08:32:39;;;;;;;4.07;3.88;;;26.40;99.90;;;;;;5061022;28;20600;-60
2022/08/01 08:35:09;;;;;;;4.00;3.72;;;26.80;99.90;;;;;;5068978;28;20283;-59
2022/08/01 08:37:40;;;;;;;5.80;5.40;;;27.20;99.90;;;;;;5058788;28;20239;-59
2022/08/01 08:40:17;;;;;;;6.30;5.90;;;27.10;99.90;;;;;;5063993;28;20640;-60
2022/08/01 08:42:47;;;;;;;6.20;5.80;;;27.00;99.90;;;;;;5068816;28;20283;-60
2022/08/01 08:45:15;;;;;;;6.63;6.10;;;27.20;99.90;;;;;;5065754;28;20320;-60
2022/08/01 08:47:46;;;;;;;5.80;5.28;;;27.10;99.90;;;;;;5060177;28;20284;-60
2022/08/01 08:50:15;;;;;;;4.63;4.43;;;27.30;99.90;;;;;;5063523;28;20645;-60
2022/08/01 08:52:45;;;;;;;4.53;4.32;;;27.80;99.90;;;;;;5061289;28;20224;-60
2022/08/01 08:55:15;;;;;;;7.85;7.25;;;28.30;99.90;;;;;;5065351;28;20239;-60
2022/08/01 08:57:46;;;;;;;8.02;7.43;;;28.50;99.90;;;;;;5079663;28;20756;-60
2022/08/01 09:00:15;;;;;;;8.00;7.40;;;28.70;99.90;;;;;;5060469;28;20680;-59
2022/08/01 09:02:46;;;;;;;9.27;6.68;;;27.80;99.90;;;;;;5095286;28;20842;-60
2022/08/01 09:05:18;;;;;;;6.45;5.95;;;27.20;99.90;;;;;;5065969;28;20238;-60
2022/08/01 09:07:47;;;;;;;5.20;4.90;;;26.50;99.90;;;;;;5064356;28;20225;-59
2022/08/01 09:10:15;;;;;;;3.70;3.60;;;25.90;99.90;;;;;;5064460;28;20197;-59
2022/08/01 09:13:18;;;;;;;2.53;2.53;;;25.30;99.90;;;;;;5067882;28;20248;-59
2022/08/01 09:15:50;;;;;;;2.45;1.60;;;25.70;99.90;;;;;;5064144;28;20209;-59
2022/08/01 09:18:33;;;;;;;1.63;1.52;;;26.80;99.90;;;;;;5058521;28;20235;-59
2022/08/01 09:21:14;;;;;;;1.48;1.45;;;27.10;99.90;;;;;;5064969;28;20220;-60
2022/08/01 09:23:46;;;;;;;1.40;1.30;;;27.10;99.90;;;;;;5079758;28;20199;-59
2022/08/01 09:26:28;;;;;;;1.60;1.50;;;27.40;99.90;;;;;;5078998;28;20215;-59
2022/08/01 09:29:00;;;;;;;1.60;1.60;;;27.50;99.90;;;;;;5070187;28;20626;-59
2022/08/01 09:31:29;;;;;;;1.20;1.20;;;27.00;99.90;;;;;;5049214;28;20249;-59
2022/08/01 09:34:07;;;;;;;0.93;0.93;;;26.60;99.90;;;;;;5072151;28;20231;-59
2022/08/01 09:36:50;;;;;;;1.10;1.10;;;26.40;99.90;;;;;;5066064;28;20202;-58
2022/08/01 09:39:24;;;;;;;1.00;1.00;;;26.50;99.90;;;;;;5054867;28;20195;-59
2022/08/01 09:41:53;;;;;;;2.17;1.10;;;26.60;99.90;;;;;;5066662;28;20238;-59
2022/08/01 09:44:42;;;;;;;1.33;0.98;;;26.70;99.90;;;;;;5071212;28;20255;-59
2022/08/01 09:47:23;;;;;;;1.10;1.10;;;27.10;99.90;;;;;;5053838;28;20281;-58
2022/08/01 09:49:55;;;;;;;0.82;0.82;;;27.60;99.90;;;;;;5069435;28;20749;-59
2022/08/01 09:52:28;;;;;;;1.08;0.90;;;27.50;99.90;;;;;;5064077;28;20282;-59
2022/08/01 09:54:59;;;;;;;1.05;1.05;;;27.00;99.90;;;;;;5062763;28;20617;-59
2022/08/01 09:57:29;;;;;;;1.10;1.00;;;27.10;99.90;;;;;;5065387;28;20285;-59
2022/08/01 10:00:01;;;;;;;0.93;0.93;;;27.50;99.90;;;;;;5060922;28;20207;-58
2022/08/01 10:02:32;;;;;;;1.20;1.10;;;27.70;99.90;;;;;;5059594;28;20223;-59
2022/08/01 10:05:02;;;;;;;2.83;1.05;;;27.80;99.90;;;;;;5090865;28;20660;-59
2022/08/01 10:07:55;;;;;;;0.95;0.95;;;28.00;99.90;;;;;;5061319;28;20568;-59
2022/08/01 10:10:25;;;;;;;2.83;1.20;;;27.90;99.90;;;;;;5064580;28;20200;-59
2022/08/01 10:13:01;;;;;;;0.90;0.90;;;28.10;99.90;;;;;;5067245;28;20207;-59
2022/08/01 10:15:32;;;;;;;2.13;1.35;;;28.40;99.90;;;;;;5061853;28;20833;-59
2022/08/01 10:18:08;;;;;;;1.25;1.25;;;28.90;99.90;;;;;;5079358;28;20194;-59
2022/08/01 10:20:53;;;;;;;1.17;1.17;;;29.20;99.90;;;;;;5068194;28;20216;-59
2022/08/01 10:23:27;;;;;;;1.95;1.10;;;29.20;99.90;;;;;;5058881;28;20690;-59
2022/08/01 10:26:09;;;;;;;1.00;1.00;;;28.90;99.90;;;;;;5067050;28;20227;-59
2022/08/01 10:28:39;;;;;;;1.10;1.10;;;28.40;99.90;;;;;;5063150;28;20251;-59
2022/08/01 10:31:12;;;;;;;1.95;1.85;;;28.10;99.90;;;;;;5069975;28;20238;-59
2022/08/01 10:33:45;;;;;;;2.67;2.50;;;27.90;99.90;;;;;;5062340;28;20205;-58
2022/08/01 10:36:22;;;;;;;3.05;2.90;;;27.70;99.90;;;;;;5067116;28;20187;-59
2022/08/01 10:38:54;;;;;;;2.97;2.33;;;27.40;99.90;;;;;;5080273;28;20248;-58
2022/08/01 10:41:25;;;;;;;3.05;2.85;;;27.70;99.90;;;;;;5060134;28;20216;-59
2022/08/01 10:43:57;;;;;;;3.10;2.63;;;28.20;99.90;;;;;;5066950;28;20553;-59
2022/08/01 10:46:27;;;;;;;3.13;3.03;;;28.70;99.90;;;;;;5065262;28;20607;-59
2022/08/01 10:49:05;;;;;;;3.00;2.90;;;28.70;99.90;;;;;;5069697;28;20218;-59
2022/08/01 10:51:37;;;;;;;2.95;2.85;;;28.50;99.90;;;;;;5065322;28;20727;-59
2022/08/01 10:54:20;;;;;;;2.92;2.83;;;28.80;99.90;;;;;;5066714;28;20200;-59
2022/08/01 10:56:55;;;;;;;4.07;3.53;;;29.10;99.90;;;;;;5065834;28;20213;-59
2022/08/01 10:59:26;;;;;;;3.10;3.00;;;29.50;99.90;;;;;;5057655;28;20196;-59
2022/08/01 11:02:28;;;;;;;3.55;3.30;;;29.40;99.90;;;;;;5064868;28;20698;-59
2022/08/01 11:05:02;;;;;;;3.10;3.00;;;29.20;99.90;;;;;;5065209;28;20211;-59
2022/08/01 11:07:45;;;;;;;3.80;3.50;;;29.30;99.90;;;;;;5066177;28;20259;-59
2022/08/01 11:10:27;;;;;;;3.38;3.15;;;29.40;99.90;;;;;;5065516;28;20208;-59
2022/08/01 11:12:56;;;;;;;3.10;3.00;;;29.80;99.90;;;;;;5064145;28;20192;-59
2022/08/01 11:15:28;;;;;;;3.58;3.30;;;29.90;99.90;;;;;;5066526;28;20200;-59
2022/08/01 11:18:04;;;;;;;3.50;3.40;;;29.60;99.90;;;;;;5064364;28;20192;-59
2022/08/01 11:20:34;;;;;;;5.53;3.65;;;29.30;99.90;;;;;;5065176;28;20218;-59
2022/08/01 11:23:32;;;;;;;3.80;3.50;;;29.40;99.90;;;;;;5067983;28;20203;-59
2022/08/01 11:26:14;;;;;;;2.47;2.28;;;29.20;99.90;;;;;;5066336;28;20768;-59
2022/08/01 11:28:47;;;;;;;2.53;1.98;;;29.00;99.90;;;;;;5066461;28;20333;-59
2022/08/01 11:31:36;;;;;;;2.25;2.10;;;29.00;99.90;;;;;;5067095;28;20586;-61
2022/08/01 11:34:07;;;;;;;2.53;2.45;;;28.80;99.90;;;;;;5066878;28;20671;-59
2022/08/01 11:36:36;;;;;;;2.70;2.40;;;28.80;99.90;;;;;;5068151;28;20200;-58
2022/08/01 11:39:24;;;;;;;2.30;2.20;;;28.80;99.90;;;;;;5065396;28;20204;-59
2022/08/01 11:41:54;;;;;;;3.20;2.08;;;28.90;99.90;;;;;;5062079;28;20664;-59
2022/08/01 11:44:27;;;;;;;3.42;1.95;;;29.00;99.90;;;;;;5074553;28;20199;-59
2022/08/01 11:47:16;;;;;;;3.90;2.10;;;29.10;99.90;;;;;;5063300;28;20555;-59
2022/08/01 11:49:54;;;;;;;2.03;1.92;;;29.40;99.90;;;;;;5068577;28;20196;-59
2022/08/01 11:52:28;;;;;;;1.88;1.88;;;29.70;99.90;;;;;;5068580;28;20626;-59
2022/08/01 11:54:58;;;;;;;2.20;2.10;;;29.90;99.90;;;;;;5060386;28;20220;-58
2022/08/01 11:57:30;;;;;;;2.75;2.30;;;29.90;99.90;;;;;;5081019;28;20200;-59
2022/08/01 12:00:12;;;;;;;2.28;2.17;;;29.70;99.90;;;;;;5061989;28;20251;-59
2022/08/01 12:02:43;;;;;;;2.47;2.28;;;29.30;99.90;;;;;;5061977;28;20277;-59
2022/08/01 12:05:17;;;;;;;2.83;2.08;;;29.30;99.90;;;;;;5063942;28;20288;-58
2022/08/01 12:07:50;;;;;;;1.98;1.90;;;29.40;99.90;;;;;;5062754;28;20636;-59
2022/08/01 12:10:20;;;;;;;2.22;2.13;;;29.40;99.90;;;;;;5068551;28;20192;-58
2022/08/01 12:12:50;;;;;;;3.53;2.67;;;29.60;99.90;;;;;;5066612;28;20202;-58
2022/08/01 12:15:20;;;;;;;3.72;2.30;;;29.60;99.90;;;;;;5069400;28;20193;-59
2022/08/01 12:17:50;;;;;;;2.72;2.15;;;29.50;99.90;;;;;;5069361;28;20191;-58
2022/08/01 12:20:29;;;;;;;2.10;2.00;;;29.30;99.90;;;;;;5069958;28;20206;-58
2022/08/01 12:23:00;;;;;;;2.65;2.00;;;29.30;99.90;;;;;;5046288;28;20231;-61
2022/08/01 12:25:29;;;;;;;2.65;2.00;;;29.50;99.90;;;;;;5065825;28;20534;-61
2022/08/01 12:28:02;;;;;;;3.75;2.08;;;29.30;99.90;;;;;;5069523;28;20277;-58
2022/08/01 12:30:34;;;;;;;2.10;2.00;;;29.40;99.90;;;;;;5071614;28;20195;-58
2022/08/01 12:33:05;;;;;;;1.83;1.73;;;29.60;99.90;;;;;;5066567;28;20202;-58
2022/08/01 12:35:36;;;;;;;2.30;2.10;;;29.50;99.90;;;;;;5069093;28;20321;-58
2022/08/01 12:38:07;;;;;;;1.92;1.60;;;29.60;99.90;;;;;;5070133;28;20221;-58
2022/08/01 12:40:37;;;;;;;1.63;1.63;;;29.60;99.90;;;;;;5071431;28;20205;-58
2022/08/01 12:43:17;;;;;;;1.70;1.60;;;29.10;99.90;;;;;;5062654;28;20222;-58
2022/08/01 12:45:57;;;;;;;1.98;1.70;;;28.80;99.90;;;;;;5065724;28;20661;-57
2022/08/01 12:48:27;;;;;;;1.90;1.80;;;28.50;99.90;;;;;;5065649;28;20195;-58
2022/08/01 12:51:00;;;;;;;1.52;1.50;;;28.50;99.90;;;;;;5066677;28;20212;-58
2022/08/01 12:53:34;;;;;;;1.63;1.52;;;29.00;99.90;;;;;;5071315;28;20281;-58
2022/08/01 12:56:09;;;;;;;3.30;1.67;;;29.10;99.90;;;;;;5070413;28;20196;-58
2022/08/01 12:59:00;;;;;;;2.55;1.63;;;29.60;99.90;;;;;;5065922;28;20199;-58
2022/08/01 13:01:29;;;;;;;2.72;1.58;;;29.70;99.90;;;;;;5069586;28;20206;-58
2022/08/01 13:03:59;;;;;;;1.85;1.30;;;29.90;99.90;;;;;;5072541;28;20231;-58
2022/08/01 13:06:32;;;;;;;2.25;1.60;;;29.90;99.90;;;;;;5072444;28;20280;-59
2022/08/01 13:09:06;;;;;;;1.63;1.52;;;30.00;99.90;;;;;;5064358;28;20237;-58
2022/08/01 13:11:34;;;;;;;1.55;1.55;;;29.70;99.90;;;;;;5058113;28;20851;-59